Time;durP1;ratioP1;P1;durP2;ratioP2;P2;SDS_P1;SDS_P2;PMS_P1;PMS_P2;Temp;Humidity;BMP_temperature;BMP_pressure;BME280_temperature;BME280_humidity;BME280_pressure;Samples;Min_cycle;Max_cycle;Signal;HPM_P1;HPM_P2
2021/09/27 00:01:16;;;;;;;24.80;19.70;;;;;;;14.44;88.75;98785.38;114402;1198;22441;-84
2021/09/27 00:03:43;;;;;;;25.40;18.60;;;;;;;14.49;89.05;98787.88;114288;1198;23356;-83
2021/09/27 00:06:15;;;;;;;26.50;21.50;;;;;;;14.52;88.95;98786.30;114346;1198;24062;-84
2021/09/27 00:08:45;;;;;;;29.70;22.90;;;;;;;14.56;89.16;98787.89;114238;1190;22972;-84
2021/09/27 00:11:16;;;;;;;27.60;22.20;;;;;;;14.60;89.15;98792.06;114033;1198;22433;-85
2021/09/27 00:13:51;;;;;;;26.90;20.00;;;;;;;14.61;89.06;98794.98;114481;1198;24177;-84
2021/09/27 00:16:18;;;;;;;32.20;21.60;;;;;;;14.62;89.00;98789.72;114487;1198;24995;-84
2021/09/27 00:19:00;;;;;;;28.50;20.60;;;;;;;14.60;89.00;98786.34;114222;1198;24042;-85
2021/09/27 00:21:37;;;;;;;28.90;21.00;;;;;;;14.64;89.21;98783.20;114256;1198;23430;-84
2021/09/27 00:24:05;;;;;;;30.50;20.70;;;;;;;14.65;89.09;98781.40;114392;1198;22437;-84
2021/09/27 00:26:58;;;;;;;27.30;20.80;;;;;;;14.67;89.16;98780.59;114257;1198;23590;-84
2021/09/27 00:29:24;;;;;;;31.30;22.30;;;;;;;14.68;89.08;98778.89;113903;1198;24108;-84
2021/09/27 00:31:50;;;;;;;35.20;24.50;;;;;;;14.68;89.10;98775.77;114172;1198;23761;-84
2021/09/27 00:34:17;;;;;;;32.40;23.80;;;;;;;14.68;89.08;98776.70;114134;1198;22719;-84
2021/09/27 00:36:50;;;;;;;31.10;22.40;;;;;;;14.68;89.36;98772.91;114252;1198;23025;-84
2021/09/27 00:39:17;;;;;;;33.90;23.60;;;;;;;14.69;89.36;98771.29;114218;1198;24165;-84
2021/09/27 00:41:46;;;;;;;34.20;23.60;;;;;;;14.70;89.12;98769.92;113963;1198;22592;-84
2021/09/27 00:44:13;;;;;;;34.10;22.70;;;;;;;14.69;89.09;98777.33;114295;1198;23802;-84
2021/09/27 00:46:39;;;;;;;34.70;25.30;;;;;;;14.70;89.30;98780.87;114176;1198;22446;-84
2021/09/27 00:49:06;;;;;;;35.00;25.00;;;;;;;14.72;89.19;98780.89;114415;1198;22542;-85
2021/09/27 00:51:37;;;;;;;36.90;24.80;;;;;;;14.69;89.05;98776.11;114471;1198;25073;-84
2021/09/27 00:54:25;;;;;;;32.50;24.10;;;;;;;14.67;88.94;98776.46;114287;1198;24108;-84
2021/09/27 00:57:03;;;;;;;34.00;23.30;;;;;;;14.64;89.10;98777.38;113925;1193;22433;-84
2021/09/27 00:59:32;;;;;;;37.80;22.90;;;;;;;14.64;89.20;98783.41;114368;1197;24043;-85
2021/09/27 01:02:01;;;;;;;32.60;23.40;;;;;;;14.63;89.34;98780.84;114299;1198;24059;-83
2021/09/27 01:04:27;;;;;;;35.20;24.40;;;;;;;14.62;89.14;98780.44;114224;1198;22842;-84
2021/09/27 01:07:30;;;;;;;34.40;24.60;;;;;;;14.62;89.29;98781.81;114358;1197;23930;-83
2021/09/27 01:10:23;;;;;;;34.30;24.00;;;;;;;14.61;89.28;98782.30;114358;1198;22436;-83
2021/09/27 01:12:55;;;;;;;35.30;23.20;;;;;;;14.60;89.25;98779.28;114145;1198;22462;-84
2021/09/27 01:15:45;;;;;;;34.10;23.60;;;;;;;14.60;89.16;98781.86;114139;1192;23767;-84
2021/09/27 01:18:23;;;;;;;36.30;23.10;;;;;;;14.61;89.26;98776.39;114101;1198;22423;-83
2021/09/27 01:21:10;;;;;;;35.60;25.20;;;;;;;14.65;89.22;98770.98;114023;1198;22441;-84
2021/09/27 01:24:02;;;;;;;40.50;27.20;;;;;;;14.65;89.18;98763.27;114272;1198;25148;-83
2021/09/27 01:26:34;;;;;;;35.70;23.80;;;;;;;14.63;89.19;98768.73;114028;1198;24028;-83
2021/09/27 01:29:20;;;;;;;34.10;24.70;;;;;;;14.63;89.29;98772.29;114119;1198;24999;-83
2021/09/27 01:32:23;;;;;;;37.90;25.00;;;;;;;14.65;89.44;98767.20;113918;1198;24175;-84
2021/09/27 01:35:29;;;;;;;38.00;24.80;;;;;;;14.63;89.08;98763.02;114230;1198;22445;-84
2021/09/27 01:38:46;;;;;;;37.00;24.90;;;;;;;14.65;89.06;98763.75;113956;1198;22465;-83
2021/09/27 01:41:31;;;;;;;40.20;26.80;;;;;;;14.65;89.10;98765.16;113721;1198;22444;-83
2021/09/27 01:44:19;;;;;;;41.30;24.40;;;;;;;14.64;88.93;98763.67;113625;1198;22445;-83
2021/09/27 01:47:09;;;;;;;37.00;23.90;;;;;;;14.60;88.75;98764.09;114126;1198;22463;-83
2021/09/27 01:50:01;;;;;;;38.20;25.10;;;;;;;14.57;88.99;98761.36;113993;1198;22571;-83
2021/09/27 01:52:51;;;;;;;38.30;25.10;;;;;;;14.57;89.05;98758.14;114033;1198;22433;-83
2021/09/27 01:55:30;;;;;;;40.60;26.00;;;;;;;14.61;89.25;98757.13;113935;1198;22422;-83
2021/09/27 01:58:22;;;;;;;46.40;28.00;;;;;;;14.59;88.86;98755.53;114051;1198;22446;-83
2021/09/27 02:00:54;;;;;;;40.50;26.10;;;;;;;14.57;89.24;98749.58;113973;1177;26242;-85
2021/09/27 02:03:42;;;;;;;37.70;25.40;;;;;;;14.58;89.02;98747.42;113673;1198;22487;-85
2021/09/27 02:06:14;;;;;;;37.70;24.50;;;;;;;14.58;89.03;98743.95;113977;1198;22428;-85
2021/09/27 02:09:09;;;;;;;37.00;25.10;;;;;;;14.60;89.15;98742.50;114010;1198;23201;-85
2021/09/27 02:11:39;;;;;;;41.50;26.00;;;;;;;14.59;89.11;98742.98;113933;1198;22411;-85
2021/09/27 02:14:31;;;;;;;36.10;24.40;;;;;;;14.57;89.00;98740.70;113839;1198;22608;-85
2021/09/27 02:17:19;;;;;;;35.00;23.00;;;;;;;14.53;89.05;98738.52;114035;1198;25232;-84
2021/09/27 02:20:15;;;;;;;35.10;23.20;;;;;;;14.53;89.02;98735.39;114351;1198;24064;-85
2021/09/27 02:23:03;;;;;;;31.30;22.00;;;;;;;14.52;89.08;98737.52;114278;1198;24163;-85
2021/09/27 02:25:34;;;;;;;37.90;24.60;;;;;;;14.50;89.06;98747.55;114300;1198;22435;-85
2021/09/27 02:28:06;;;;;;;31.50;22.10;;;;;;;14.50;89.19;98752.21;114144;1198;24029;-85
2021/09/27 02:30:58;;;;;;;33.10;23.00;;;;;;;14.51;89.19;98751.84;114425;1198;25131;-85
2021/09/27 02:33:35;;;;;;;33.00;21.30;;;;;;;14.55;89.39;98746.92;114420;1198;25124;-85
2021/09/27 02:36:11;;;;;;;37.30;24.90;;;;;;;14.56;88.98;98746.60;114329;1198;25370;-85
2021/09/27 02:38:51;;;;;;;37.40;25.40;;;;;;;14.55;88.99;98747.15;113900;1198;22807;-85
2021/09/27 02:41:27;;;;;;;34.20;23.50;;;;;;;14.51;88.91;98749.31;114114;1184;23270;-84
2021/09/27 02:43:53;;;;;;;35.70;21.70;;;;;;;14.53;89.04;98744.44;113891;1198;25043;-85
2021/09/27 02:46:20;;;;;;;31.70;21.40;;;;;;;14.50;88.73;98744.20;113945;1198;22464;-84
2021/09/27 02:49:09;;;;;;;34.80;22.90;;;;;;;14.49;89.15;98739.42;114315;1198;24020;-85
2021/09/27 02:51:48;;;;;;;38.60;26.30;;;;;;;14.50;89.13;98743.89;114409;1197;24210;-85
2021/09/27 02:54:27;;;;;;;38.30;24.60;;;;;;;14.50;89.11;98740.20;114218;1198;23659;-84
2021/09/27 02:57:24;;;;;;;35.30;23.60;;;;;;;14.50;89.15;98738.30;114270;1198;25094;-84
2021/09/27 03:00:10;;;;;;;36.40;24.20;;;;;;;14.51;89.03;98738.73;114185;1197;22463;-84
2021/09/27 03:03:14;;;;;;;36.90;23.80;;;;;;;14.50;89.08;98746.89;113990;1198;23418;-84
2021/09/27 03:06:10;;;;;;;42.20;26.20;;;;;;;14.50;88.87;98743.61;114231;1198;22428;-84
2021/09/27 03:08:41;;;;;;;39.10;26.70;;;;;;;14.45;88.96;98732.77;114230;1198;22530;-83
2021/09/27 03:11:32;;;;;;;39.60;25.30;;;;;;;14.45;88.83;98730.14;114381;1198;22630;-83
2021/09/27 03:14:36;;;;;;;33.80;23.20;;;;;;;14.41;88.99;98735.98;114420;1198;22424;-83
2021/09/27 03:17:10;;;;;;;33.10;23.10;;;;;;;14.40;89.06;98739.91;114274;1182;25111;-84
2021/09/27 03:20:06;;;;;;;38.50;25.20;;;;;;;14.40;89.16;98741.89;114397;1198;22440;-84
2021/09/27 03:22:44;;;;;;;41.40;27.10;;;;;;;14.42;89.35;98742.63;114305;1198;24103;-83
2021/09/27 03:25:29;;;;;;;34.60;23.60;;;;;;;14.46;89.40;98739.85;114313;1197;24142;-83
2021/09/27 03:27:59;;;;;;;36.00;22.90;;;;;;;14.50;89.30;98736.92;114111;1198;25032;-85
2021/09/27 03:30:41;;;;;;;40.10;23.90;;;;;;;14.51;89.00;98737.48;114167;1198;24987;-85
2021/09/27 03:33:58;;;;;;;36.30;23.70;;;;;;;14.51;88.86;98733.70;114212;1198;24142;-85
2021/09/27 03:36:43;;;;;;;39.40;25.20;;;;;;;14.48;88.69;98735.70;114407;1198;22888;-82
2021/09/27 03:39:28;;;;;;;40.40;25.90;;;;;;;14.41;88.72;98731.76;114252;1198;22424;-85
2021/09/27 03:42:04;;;;;;;37.40;23.60;;;;;;;14.38;88.84;98734.48;114378;1197;25051;-85
2021/09/27 03:44:44;;;;;;;37.90;22.70;;;;;;;14.38;88.90;98730.37;114004;1198;24067;-85
2021/09/27 03:47:16;;;;;;;36.80;24.50;;;;;;;14.38;89.07;98726.19;114171;1198;23667;-85
2021/09/27 03:49:53;;;;;;;;;;;;;;;14.40;89.07;98725.40;114289;1198;22431;-85
2021/09/27 03:52:39;;;;;;;41.60;26.90;;;;;;;14.34;88.63;98722.67;114308;1198;22455;-85
2021/09/27 03:55:34;;;;;;;35.70;23.10;;;;;;;14.28;88.78;98718.41;114259;1198;23783;-84
2021/09/27 03:58:09;;;;;;;40.20;23.10;;;;;;;14.24;89.06;98715.86;114315;1198;25051;-85
2021/09/27 04:00:49;;;;;;;35.00;22.40;;;;;;;14.21;89.12;98707.34;114245;1198;22477;-85
2021/09/27 04:03:21;;;;;;;38.20;24.50;;;;;;;14.22;89.26;98714.41;113998;1198;22442;-85
2021/09/27 04:06:16;;;;;;;38.60;26.10;;;;;;;14.23;89.44;98717.29;114154;1198;23581;-85
2021/09/27 04:09:10;;;;;;;34.50;23.10;;;;;;;14.22;89.40;98716.61;114036;1196;22445;-85
2021/09/27 04:12:05;;;;;;;35.40;22.80;;;;;;;14.22;89.37;98714.04;114199;1198;25938;-85
2021/09/27 04:14:43;;;;;;;34.40;22.40;;;;;;;14.25;89.58;98711.43;114109;1180;26357;-85
2021/09/27 04:17:38;;;;;;;40.80;24.40;;;;;;;14.26;89.25;98709.89;114267;1198;22902;-85
2021/09/27 04:20:14;;;;;;;37.00;25.70;;;;;;;14.24;89.21;98712.52;114229;1197;22531;-84
2021/09/27 04:23:02;;;;;;;33.70;22.90;;;;;;;14.21;89.09;98711.34;114176;1177;23049;-84
2021/09/27 04:25:59;;;;;;;36.60;23.00;;;;;;;14.21;89.27;98714.64;114163;1198;22533;-84
2021/09/27 04:28:54;;;;;;;33.50;21.80;;;;;;;14.17;89.24;98714.50;114236;1198;22729;-85
2021/09/27 04:31:34;;;;;;;40.10;23.60;;;;;;;14.15;89.19;98710.92;113907;1198;22494;-84
2021/09/27 04:34:15;;;;;;;32.20;20.90;;;;;;;14.13;89.38;98704.05;114190;1194;22455;-85
2021/09/27 04:36:45;;;;;;;34.30;22.20;;;;;;;14.07;89.31;98703.13;114219;1198;22825;-85
2021/09/27 04:39:15;;;;;;;31.20;21.30;;;;;;;14.04;89.53;98709.58;114065;1198;22443;-84
2021/09/27 04:42:27;;;;;;;31.60;21.70;;;;;;;14.03;89.51;98712.84;114194;1190;22484;-85
2021/09/27 04:45:15;;;;;;;32.70;21.60;;;;;;;14.00;89.67;98717.97;114222;1198;22613;-82
2021/09/27 04:48:00;;;;;;;35.40;23.50;;;;;;;14.02;89.90;98722.09;114126;1198;23901;-84
2021/09/27 04:50:40;;;;;;;38.40;24.80;;;;;;;14.04;90.07;98729.30;114068;1198;25158;-84
2021/09/27 04:53:38;;;;;;;37.80;22.90;;;;;;;14.04;90.05;98732.80;114236;1198;23245;-84
2021/09/27 04:56:11;;;;;;;34.30;21.90;;;;;;;14.05;89.68;98730.83;114175;1198;25027;-85
2021/09/27 04:59:16;;;;;;;35.70;22.10;;;;;;;14.09;89.88;98727.19;114171;1198;24033;-84
2021/09/27 05:02:20;;;;;;;37.10;23.10;;;;;;;14.13;89.95;98732.70;113994;1198;22426;-84
2021/09/27 05:04:51;;;;;;;33.80;22.80;;;;;;;14.17;89.82;98733.72;113955;1198;22454;-84
2021/09/27 05:07:42;;;;;;;30.90;20.20;;;;;;;14.20;89.76;98732.92;113891;1194;22537;-84
2021/09/27 05:10:39;;;;;;;29.30;20.70;;;;;;;14.21;89.51;98731.17;114099;1198;22558;-84
2021/09/27 05:14:03;;;;;;;25.10;18.20;;;;;;;14.22;89.51;98728.13;114193;1198;22503;-83
2021/09/27 05:16:51;;;;;;;27.90;19.10;;;;;;;14.20;89.13;98734.17;114050;1198;22440;-84
2021/09/27 05:19:24;;;;;;;30.00;19.80;;;;;;;14.19;89.24;98735.27;114354;1198;26886;-84
2021/09/27 05:22:18;;;;;;;35.10;20.50;;;;;;;14.22;89.63;98735.34;114117;1193;22494;-84
2021/09/27 05:25:03;;;;;;;30.70;19.30;;;;;;;14.24;89.36;98732.52;114255;1193;23937;-83
2021/09/27 05:28:27;;;;;;;28.00;18.40;;;;;;;14.23;89.20;98730.64;114204;1198;23093;-84
2021/09/27 05:31:24;;;;;;;28.50;18.60;;;;;;;14.24;89.39;98730.05;114229;1198;23723;-83
2021/09/27 05:34:13;;;;;;;30.60;20.30;;;;;;;14.24;89.18;98736.23;114128;1176;24094;-83
2021/09/27 05:36:43;;;;;;;27.70;18.80;;;;;;;14.23;89.23;98736.23;114423;1198;25715;-83
2021/09/27 05:39:27;;;;;;;24.60;17.00;;;;;;;14.23;89.13;98740.17;114185;1198;22466;-83
2021/09/27 05:41:53;;;;;;;25.90;17.70;;;;;;;14.22;89.08;98738.20;114318;1197;22440;-83
2021/09/27 05:44:19;;;;;;;27.00;18.80;;;;;;;14.23;89.29;98738.31;114464;1198;22483;-84
2021/09/27 05:47:22;;;;;;;28.30;18.90;;;;;;;14.24;89.08;98742.77;114080;1198;22916;-83
2021/09/27 05:49:57;;;;;;;27.90;19.90;;;;;;;14.24;89.19;98736.79;114363;1190;24032;-84
2021/09/27 05:52:37;;;;;;;28.30;18.50;;;;;;;14.25;89.14;98736.79;114276;1183;22550;-83
2021/09/27 05:55:20;;;;;;;27.50;17.90;;;;;;;14.25;89.32;98736.85;114190;1198;22450;-83
2021/09/27 05:57:58;;;;;;;24.50;17.50;;;;;;;14.29;89.33;98740.23;114545;1198;22432;-83
2021/09/27 06:00:30;;;;;;;27.50;19.10;;;;;;;14.31;89.16;98743.53;114049;1198;24946;-83
2021/09/27 06:03:31;;;;;;;30.00;18.40;;;;;;;14.33;89.19;98743.44;114874;1197;22439;-83
2021/09/27 06:06:12;;;;;;;21.00;16.50;;;;;;;14.34;89.05;98743.44;114445;1197;22555;-83
2021/09/27 06:09:05;;;;;;;23.20;16.90;;;;;;;14.36;89.09;98750.41;114475;1197;22460;-83
2021/09/27 06:11:45;;;;;;;24.00;16.20;;;;;;;14.38;88.97;98752.51;114502;1197;23767;-82
2021/09/27 06:14:15;;;;;;;25.80;17.50;;;;;;;14.38;88.76;98753.55;114766;1190;24158;-82
2021/09/27 06:17:06;;;;;;;27.40;19.30;;;;;;;14.36;88.57;98753.36;114508;1190;22467;-82
2021/09/27 06:19:58;;;;;;;26.00;16.70;;;;;;;14.34;88.74;98753.52;114170;1178;23492;-82
2021/09/27 06:23:02;;;;;;;24.50;16.30;;;;;;;14.35;88.84;98752.05;114268;1198;24056;-82
2021/09/27 06:25:39;;;;;;;25.80;17.80;;;;;;;14.38;88.90;98750.27;113920;1198;22446;-82
2021/09/27 06:28:36;;;;;;;24.00;16.20;;;;;;;14.42;89.06;98749.59;114254;1198;22588;-82
2021/09/27 06:31:13;;;;;;;25.90;17.80;;;;;;;14.44;88.53;98752.50;114051;1198;23748;-82
2021/09/27 06:34:04;;;;;;;25.10;17.30;;;;;;;14.41;88.53;98751.00;114044;1197;22493;-82
2021/09/27 06:36:33;;;;;;;26.40;17.30;;;;;;;14.43;88.68;98751.17;114020;1198;22432;-81
2021/09/27 06:39:06;;;;;;;26.70;16.70;;;;;;;14.49;88.87;98750.78;114077;1190;25283;-82
2021/09/27 06:41:50;;;;;;;26.40;17.40;;;;;;;14.55;88.48;98743.36;114285;1190;24225;-82
2021/09/27 06:44:16;;;;;;;29.40;20.30;;;;;;;14.59;88.65;98741.06;114064;1198;26352;-82
2021/09/27 06:46:45;;;;;;;26.70;18.20;;;;;;;14.62;88.61;98742.73;114041;1198;23469;-81
2021/09/27 06:49:12;;;;;;;24.70;16.10;;;;;;;14.65;88.45;98746.52;114203;1198;24852;-82
2021/09/27 06:51:55;;;;;;;25.30;16.80;;;;;;;14.71;88.48;98747.34;113970;1193;24035;-82
2021/09/27 06:54:22;;;;;;;26.70;18.70;;;;;;;14.72;87.99;98746.09;113933;1198;22487;-82
2021/09/27 06:56:49;;;;;;;26.60;20.60;;;;;;;14.71;87.97;98748.98;114226;1198;22448;-82
2021/09/27 06:59:17;;;;;;;25.70;17.50;;;;;;;14.72;88.00;98746.40;114273;1198;23554;-82
2021/09/27 07:01:45;;;;;;;20.80;15.50;;;;;;;14.73;87.79;98753.44;114351;1198;24224;-82
2021/09/27 07:04:11;;;;;;;24.20;16.10;;;;;;;14.75;87.65;98754.80;114406;1198;23920;-82
2021/09/27 07:06:37;;;;;;;20.80;15.60;;;;;;;14.77;87.96;98748.20;114453;1198;24162;-82
2021/09/27 07:09:04;;;;;;;26.60;18.20;;;;;;;14.78;87.41;98748.96;114576;1198;25133;-82
2021/09/27 07:11:31;;;;;;;21.90;15.10;;;;;;;14.77;87.62;98752.69;114401;1198;22446;-82
2021/09/27 07:13:58;;;;;;;23.10;15.00;;;;;;;14.80;87.80;98754.13;114478;1198;24048;-81
2021/09/27 07:16:24;;;;;;;17.70;14.20;;;;;;;14.83;87.53;98754.91;114379;1198;22437;-82
2021/09/27 07:18:50;;;;;;;20.60;16.00;;;;;;;14.84;87.39;98755.08;114288;1198;22444;-82
2021/09/27 07:21:32;;;;;;;21.80;15.90;;;;;;;14.84;87.44;98754.81;114287;1198;24272;-82
2021/09/27 07:23:58;;;;;;;24.10;16.00;;;;;;;14.86;87.40;98754.33;114221;1198;22451;-81
2021/09/27 07:26:26;;;;;;;20.80;14.60;;;;;;;14.90;87.39;98753.36;114604;1198;25393;-82
2021/09/27 07:28:53;;;;;;;23.50;16.00;;;;;;;14.94;87.23;98749.33;114189;1193;23079;-82
2021/09/27 07:31:20;;;;;;;24.30;16.50;;;;;;;14.98;87.49;98753.69;114169;1198;25154;-82
2021/09/27 07:33:47;;;;;;;25.70;16.60;;;;;;;15.03;87.39;98748.83;114123;1198;26309;-81
2021/09/27 07:36:14;;;;;;;23.70;16.50;;;;;;;15.06;87.22;98751.52;114165;1197;22430;-81
2021/09/27 07:38:56;;;;;;;22.10;15.40;;;;;;;15.03;86.70;98748.28;115547;1198;22468;-82
2021/09/27 07:41:25;;;;;;;21.50;15.50;;;;;;;15.04;86.91;98750.90;114231;1190;24021;-82
2021/09/27 07:43:51;;;;;;;;;;;;;;;15.06;86.83;98749.81;114491;1193;22448;-82
2021/09/27 07:46:22;;;;;;;24.80;16.40;;;;;;;15.10;86.72;98752.15;114655;1197;22434;-81
2021/09/27 07:48:48;;;;;;;24.60;16.10;;;;;;;15.12;86.69;98750.01;115014;1198;23896;-82
2021/09/27 07:51:14;;;;;;;23.90;16.70;;;;;;;15.15;86.81;98751.89;116597;1197;23085;-82
2021/09/27 07:53:40;;;;;;;23.80;16.10;;;;;;;15.19;86.79;98742.97;115175;1197;22770;-82
2021/09/27 07:56:07;;;;;;;24.70;16.40;;;;;;;15.23;86.60;98738.16;114473;1198;25032;-82
2021/09/27 07:58:33;;;;;;;24.10;16.90;;;;;;;15.25;86.38;98734.48;114581;1198;22448;-81
2021/09/27 08:00:59;;;;;;;28.40;18.00;;;;;;;15.24;86.21;98733.66;114630;1197;22521;-82
2021/09/27 08:03:26;;;;;;;24.10;16.20;;;;;;;15.25;86.41;98731.23;114440;1198;22476;-81
2021/09/27 08:05:52;;;;;;;24.90;14.90;;;;;;;15.23;86.02;98731.80;114515;1197;22486;-81
2021/09/27 08:08:19;;;;;;;21.90;14.70;;;;;;;15.24;86.07;98729.64;114541;1198;22449;-81
2021/09/27 08:10:46;;;;;;;20.20;14.50;;;;;;;15.26;85.86;98731.73;114782;1197;22457;-81
2021/09/27 08:13:15;;;;;;;21.10;15.20;;;;;;;15.26;85.68;98732.17;114232;1198;24156;-81
2021/09/27 08:15:46;;;;;;;21.30;15.10;;;;;;;15.28;85.72;98734.71;114688;1198;24200;-81
2021/09/27 08:18:15;;;;;;;19.60;14.20;;;;;;;15.31;85.46;98732.86;115173;1198;22438;-81
2021/09/27 08:20:59;;;;;;;20.00;14.70;;;;;;;15.30;85.33;98736.91;114652;1198;22506;-81
2021/09/27 08:23:26;;;;;;;23.80;16.00;;;;;;;15.32;85.37;98736.22;115121;1193;23151;-81
2021/09/27 08:25:54;;;;;;;25.10;16.80;;;;;;;15.35;85.44;98735.67;114673;1198;22430;-81
2021/09/27 08:28:22;;;;;;;26.80;16.30;;;;;;;15.41;85.55;98737.01;114787;1198;22490;-81
2021/09/27 08:30:52;;;;;;;23.10;16.00;;;;;;;15.44;85.26;98739.77;115033;1197;22471;-81
2021/09/27 08:33:21;;;;;;;23.80;16.10;;;;;;;15.46;85.11;98740.27;114482;1198;22686;-81
2021/09/27 08:35:50;;;;;;;21.60;15.40;;;;;;;15.49;85.11;98734.45;115276;1190;23371;-79
2021/09/27 08:38:18;;;;;;;23.90;15.70;;;;;;;15.53;84.93;98737.81;114287;1198;25251;-82
2021/09/27 08:41:00;;;;;;;23.90;16.40;;;;;;;15.54;84.96;98744.45;114263;1198;25013;-82
2021/09/27 08:43:29;;;;;;;25.80;16.70;;;;;;;15.60;85.08;98744.69;114270;1198;22963;-81
2021/09/27 08:45:58;;;;;;;;;;;;;;;15.66;85.01;98744.59;114133;1198;22708;-81
2021/09/27 08:48:40;;;;;;;22.50;15.20;;;;;;;15.70;84.86;98745.36;114176;1198;24164;-81
2021/09/27 08:51:07;;;;;;;21.90;14.70;;;;;;;15.72;84.63;98748.63;114165;1198;22459;-81
2021/09/27 08:53:35;;;;;;;27.50;17.30;;;;;;;15.73;84.63;98744.89;113825;1198;22719;-81
2021/09/27 08:56:21;;;;;;;26.00;18.20;;;;;;;15.79;84.42;98746.46;114500;1197;24073;-81
2021/09/27 08:58:52;;;;;;;28.10;17.70;;;;;;;15.79;84.15;98743.94;114257;1198;24077;-81
2021/09/27 09:01:37;;;;;;;25.50;16.80;;;;;;;15.78;83.95;98747.72;114120;1198;22923;-81
2021/09/27 09:04:14;;;;;;;24.60;17.50;;;;;;;15.76;84.11;98746.13;114064;1198;22453;-81
2021/09/27 09:06:45;;;;;;;23.80;15.80;;;;;;;15.79;84.00;98746.17;114197;1197;22427;-81
2021/09/27 09:09:16;;;;;;;28.80;19.40;;;;;;;15.82;84.09;98749.88;114526;1192;24247;-81
2021/09/27 09:12:19;;;;;;;26.80;18.40;;;;;;;15.86;84.23;98744.60;114228;1198;22439;-81
2021/09/27 09:14:51;;;;;;;28.50;17.40;;;;;;;15.89;83.83;98747.79;114734;1198;22525;-81
2021/09/27 09:17:42;;;;;;;28.80;16.90;;;;;;;15.88;83.58;98751.48;114169;1198;24262;-81
2021/09/27 09:20:23;;;;;;;29.40;18.50;;;;;;;15.89;83.89;98755.27;114205;1198;22454;-81
2021/09/27 09:22:52;;;;;;;27.50;17.60;;;;;;;15.92;83.82;98753.94;114144;1198;25202;-80
2021/09/27 09:25:32;;;;;;;27.10;18.20;;;;;;;15.96;83.99;98754.56;114129;1192;25371;-80
2021/09/27 09:27:59;;;;;;;;;;;;;;;16.01;83.79;98752.36;114603;1198;24053;-81
2021/09/27 09:31:07;;;;;;;24.10;17.00;;;;;;;16.05;83.80;98752.27;114318;1198;22440;-81
2021/09/27 09:33:44;;;;;;;23.60;16.70;;;;;;;16.11;83.70;98749.96;114475;1198;23764;-80
2021/09/27 09:36:22;;;;;;;33.00;19.60;;;;;;;16.16;83.50;98745.66;114296;1190;24018;-81
2021/09/27 09:38:49;;;;;;;26.10;19.00;;;;;;;16.19;83.34;98744.02;114693;1197;22219;-81
2021/09/27 09:41:16;;;;;;;45.00;28.40;;;;;;;16.24;83.22;98739.79;113915;1198;22487;-80
2021/09/27 09:43:47;;;;;;;29.90;20.30;;;;;;;16.31;83.13;98743.20;114071;1198;24068;-80
2021/09/27 09:46:28;;;;;;;29.80;20.90;;;;;;;16.40;83.22;98744.62;113876;1198;22427;-81
2021/09/27 09:49:04;;;;;;;28.10;18.60;;;;;;;16.50;82.93;98743.13;114650;1198;22432;-81
2021/09/27 09:51:41;;;;;;;28.10;19.00;;;;;;;16.59;82.80;98742.01;114816;1198;22443;-81
2021/09/27 09:54:14;;;;;;;30.40;19.30;;;;;;;16.69;82.66;98731.70;116832;1198;22495;-82
2021/09/27 09:56:45;;;;;;;103.00;71.50;;;;;;;16.77;82.30;98724.48;114989;1198;22802;-81
2021/09/27 09:59:25;;;;;;;37.10;27.60;;;;;;;16.90;82.03;98721.18;114320;1198;23752;-81
2021/09/27 10:01:57;;;;;;;27.10;19.50;;;;;;;17.05;81.84;98719.04;114171;1190;24107;-81
2021/09/27 10:04:35;;;;;;;26.10;17.20;;;;;;;17.19;81.91;98719.02;114354;1182;22452;-81
2021/09/27 10:07:16;;;;;;;27.80;19.10;;;;;;;17.32;81.12;98717.48;113760;1198;22426;-81
2021/09/27 10:09:51;;;;;;;28.10;18.00;;;;;;;17.44;81.01;98717.92;114115;1198;22428;-80
2021/09/27 10:12:45;;;;;;;32.70;19.50;;;;;;;17.55;80.49;98718.13;114004;1198;24085;-80
2021/09/27 10:15:34;;;;;;;30.10;19.10;;;;;;;17.64;80.13;98715.14;114075;1198;25042;-80
2021/09/27 10:18:02;;;;;;;30.70;20.00;;;;;;;17.75;79.83;98711.23;114096;1192;23751;-80
2021/09/27 10:20:40;;;;;;;150.70;83.60;;;;;;;17.91;79.68;98711.30;114554;1198;25229;-80
2021/09/27 10:23:11;;;;;;;31.60;20.20;;;;;;;18.12;79.20;98707.79;114229;1198;25152;-80
2021/09/27 10:25:42;;;;;;;33.50;21.00;;;;;;;18.29;78.73;98704.05;114017;1198;22498;-80
2021/09/27 10:28:15;;;;;;;31.10;19.50;;;;;;;18.45;78.02;98697.28;114480;1198;24176;-80
2021/09/27 10:30:57;;;;;;;33.10;21.90;;;;;;;18.64;78.17;98689.64;114067;1198;25208;-80
2021/09/27 10:33:27;;;;;;;30.00;19.30;;;;;;;18.77;77.18;98688.71;114314;1198;22469;-81
2021/09/27 10:36:19;;;;;;;30.00;19.30;;;;;;;18.85;76.71;98682.20;114351;1198;22769;-81
2021/09/27 10:38:49;;;;;;;28.10;16.80;;;;;;;18.94;76.69;98687.16;114406;1198;23317;-80
2021/09/27 10:41:26;;;;;;;33.40;18.80;;;;;;;19.07;76.37;98682.11;114050;1198;23870;-80
2021/09/27 10:44:01;;;;;;;26.80;16.70;;;;;;;19.20;76.15;98685.70;113893;1193;22664;-80
2021/09/27 10:46:35;;;;;;;28.20;18.10;;;;;;;19.31;76.04;98684.16;114005;1199;24216;-80
2021/09/27 10:49:04;;;;;;;30.00;18.60;;;;;;;19.44;76.11;98687.13;114133;1198;22492;-80
2021/09/27 10:51:38;;;;;;;27.00;17.60;;;;;;;19.57;75.30;98686.66;114088;1198;22461;-80
2021/09/27 10:54:17;;;;;;;27.30;17.00;;;;;;;19.70;75.12;98680.62;114261;1198;23184;-80
2021/09/27 10:56:52;;;;;;;27.80;16.10;;;;;;;19.91;74.97;98674.34;114325;1197;22447;-80
2021/09/27 10:59:41;;;;;;;27.70;16.00;;;;;;;20.11;74.56;98672.86;114077;1198;25241;-80
2021/09/27 11:02:38;;;;;;;29.30;16.00;;;;;;;20.30;73.82;98673.89;114138;1198;25102;-81
2021/09/27 11:05:13;;;;;;;26.10;15.10;;;;;;;20.49;73.48;98676.73;114311;1198;22432;-80
2021/09/27 11:07:47;;;;;;;26.30;15.40;;;;;;;20.64;73.10;98665.95;114448;1198;22218;-80
2021/09/27 11:10:27;;;;;;;32.00;17.80;;;;;;;20.80;72.77;98660.70;114171;1198;22588;-80
2021/09/27 11:12:55;;;;;;;27.30;16.60;;;;;;;20.98;72.14;98661.51;114239;1197;25136;-81
2021/09/27 11:15:39;;;;;;;27.50;16.30;;;;;;;21.15;71.42;98660.59;113999;1198;22546;-80
2021/09/27 11:18:23;;;;;;;29.50;17.40;;;;;;;21.25;70.80;98661.25;114246;1197;22453;-79
2021/09/27 11:21:42;;;;;;;28.70;18.10;;;;;;;21.38;69.77;98655.38;114128;1197;23647;-81
2021/09/27 11:24:11;;;;;;;30.60;17.50;;;;;;;21.50;70.07;98653.77;114396;1197;25115;-79
2021/09/27 11:27:11;;;;;;;26.10;15.50;;;;;;;21.59;69.35;98652.70;114219;1196;22870;-79
2021/09/27 11:29:37;;;;;;;26.10;16.00;;;;;;;21.68;68.79;98646.91;114135;1198;22424;-79
2021/09/27 11:32:40;;;;;;;26.50;15.60;;;;;;;21.77;68.48;98646.59;114614;1198;22469;-79
2021/09/27 11:35:35;;;;;;;22.20;14.80;;;;;;;21.89;68.40;98644.61;114014;1192;24049;-79
2021/09/27 11:38:07;;;;;;;22.70;14.20;;;;;;;22.02;67.46;98637.43;114340;1197;22468;-79
2021/09/27 11:40:39;;;;;;;22.60;14.00;;;;;;;22.08;67.16;98634.23;114284;1198;25481;-79
2021/09/27 11:43:26;;;;;;;22.50;13.90;;;;;;;22.16;66.37;98634.85;114466;1197;22894;-79
2021/09/27 11:46:25;;;;;;;18.70;11.90;;;;;;;22.18;65.71;98631.78;114134;1198;23503;-79
2021/09/27 11:49:01;;;;;;;17.90;11.70;;;;;;;22.25;65.89;98627.80;113964;1198;22443;-79
2021/09/27 11:51:32;;;;;;;15.70;11.60;;;;;;;22.38;65.63;98627.75;114097;1199;22542;-79
2021/09/27 11:54:25;;;;;;;19.50;11.40;;;;;;;22.47;65.16;98625.34;114096;1198;23809;-79
2021/09/27 11:57:16;;;;;;;14.80;10.70;;;;;;;22.53;64.56;98625.09;114200;1198;23189;-79
2021/09/27 12:00:10;;;;;;;12.10;9.60;;;;;;;22.60;64.12;98625.48;114054;1198;24138;-79
2021/09/27 12:02:50;;;;;;;13.80;8.80;;;;;;;22.73;64.63;98625.22;113981;1198;24199;-79
2021/09/27 12:05:29;;;;;;;10.50;8.10;;;;;;;22.87;63.76;98627.05;114098;1198;22537;-79